Terminal Aerodrome Forecast
Issued by NWS

Current Version | Previous Version | Graphics & Text | Print | Product List | Glossary On
Versions: 1 2 3 4 5 6 7 8 9 10 11 12 13 14 15 16 17 18 19 20 21 22 23 24 25 26 27
000
FTUS41 KILN 211600 AAE
TAFLCK
TAF AMD
KLCK 211645Z 2117/2212 VRB04KT P6SM SCT035
     FM220100 VRB03KT P6SM SKC
     FM220500 00000KT 5SM BR SKC
     FM220900 00000KT 2SM BR SKC=

USA.gov is the U.S. government's official web portal to all federal, state and local government web resources and services.